sensor_id;sensor_type;location;lat;lon;timestamp;temperature;humidity
46319;DHT22;32042;50.916;2.926;2023-10-09T00:00:31;14.50;99.90
46319;DHT22;32042;50.916;2.926;2023-10-09T00:03:06;14.50;99.90
46319;DHT22;32042;50.916;2.926;2023-10-09T00:05:32;14.50;99.90
46319;DHT22;32042;50.916;2.926;2023-10-09T00:08:14;14.40;99.90
46319;DHT22;32042;50.916;2.926;2023-10-09T00:10:57;14.40;99.90
46319;DHT22;32042;50.916;2.926;2023-10-09T00:13:41;14.40;99.90
46319;DHT22;32042;50.916;2.926;2023-10-09T00:16:16;14.50;99.90
46319;DHT22;32042;50.916;2.926;2023-10-09T00:18:42;14.50;99.90
46319;DHT22;32042;50.916;2.926;2023-10-09T00:21:18;14.50;99.90
46319;DHT22;32042;50.916;2.926;2023-10-09T00:24:00;14.60;99.90
46319;DHT22;32042;50.916;2.926;2023-10-09T00:26:29;14.60;99.90
46319;DHT22;32042;50.916;2.926;2023-10-09T00:28:56;14.60;99.90
46319;DHT22;32042;50.916;2.926;2023-10-09T00:31:23;14.50;99.90
46319;DHT22;32042;50.916;2.926;2023-10-09T00:33:55;14.60;99.90
46319;DHT22;32042;50.916;2.926;2023-10-09T00:36:40;14.60;99.90
46319;DHT22;32042;50.916;2.926;2023-10-09T00:39:16;14.60;99.90
46319;DHT22;32042;50.916;2.926;2023-10-09T00:41:48;14.60;99.90
46319;DHT22;32042;50.916;2.926;2023-10-09T00:44:14;14.70;99.90
46319;DHT22;32042;50.916;2.926;2023-10-09T00:46:40;14.60;99.90
46319;DHT22;32042;50.916;2.926;2023-10-09T00:49:08;14.60;99.90
46319;DHT22;32042;50.916;2.926;2023-10-09T00:51:41;14.60;99.90
46319;DHT22;32042;50.916;2.926;2023-10-09T00:54:13;14.70;99.90
46319;DHT22;32042;50.916;2.926;2023-10-09T00:56:40;14.70;99.90
46319;DHT22;32042;50.916;2.926;2023-10-09T00:59:10;14.70;99.90
46319;DHT22;32042;50.916;2.926;2023-10-09T01:01:46;14.70;99.90
46319;DHT22;32042;50.916;2.926;2023-10-09T01:04:30;14.60;99.90
46319;DHT22;32042;50.916;2.926;2023-10-09T01:07:02;14.60;99.90
46319;DHT22;32042;50.916;2.926;2023-10-09T01:09:46;14.70;99.90
46319;DHT22;32042;50.916;2.926;2023-10-09T01:12:15;14.70;99.90
46319;DHT22;32042;50.916;2.926;2023-10-09T01:14:44;14.70;99.90
46319;DHT22;32042;50.916;2.926;2023-10-09T01:17:10;14.70;99.90
46319;DHT22;32042;50.916;2.926;2023-10-09T01:19:37;14.70;99.90
46319;DHT22;32042;50.916;2.926;2023-10-09T01:22:03;14.70;99.90
46319;DHT22;32042;50.916;2.926;2023-10-09T01:24:41;14.70;99.90
46319;DHT22;32042;50.916;2.926;2023-10-09T01:27:07;14.70;99.90
46319;DHT22;32042;50.916;2.926;2023-10-09T01:29:40;14.70;99.90
46319;DHT22;32042;50.916;2.926;2023-10-09T01:32:07;14.70;99.90
46319;DHT22;32042;50.916;2.926;2023-10-09T01:34:42;14.70;99.90
46319;DHT22;32042;50.916;2.926;2023-10-09T01:37:12;14.70;99.90
46319;DHT22;32042;50.916;2.926;2023-10-09T01:39:48;14.70;99.90
46319;DHT22;32042;50.916;2.926;2023-10-09T01:42:18;14.70;99.90
46319;DHT22;32042;50.916;2.926;2023-10-09T01:44:56;14.70;99.90
46319;DHT22;32042;50.916;2.926;2023-10-09T01:47:24;14.70;99.90
46319;DHT22;32042;50.916;2.926;2023-10-09T01:49:51;14.80;99.90
46319;DHT22;32042;50.916;2.926;2023-10-09T01:52:18;14.80;99.90
46319;DHT22;32042;50.916;2.926;2023-10-09T01:54:50;14.90;99.90
46319;DHT22;32042;50.916;2.926;2023-10-09T01:57:18;15.00;99.90
46319;DHT22;32042;50.916;2.926;2023-10-09T01:59:51;15.00;99.90
46319;DHT22;32042;50.916;2.926;2023-10-09T02:02:19;15.00;99.90
46319;DHT22;32042;50.916;2.926;2023-10-09T02:05:05;15.00;99.90
46319;DHT22;32042;50.916;2.926;2023-10-09T02:07:41;15.10;99.90
46319;DHT22;32042;50.916;2.926;2023-10-09T02:10:11;15.00;99.90
46319;DHT22;32042;50.916;2.926;2023-10-09T02:12:55;15.10;99.90
46319;DHT22;32042;50.916;2.926;2023-10-09T02:15:29;15.00;99.90
46319;DHT22;32042;50.916;2.926;2023-10-09T02:18:07;15.10;99.90
46319;DHT22;32042;50.916;2.926;2023-10-09T02:21:06;15.10;99.90
46319;DHT22;32042;50.916;2.926;2023-10-09T02:23:34;15.10;99.90
46319;DHT22;32042;50.916;2.926;2023-10-09T02:26:10;15.20;99.90
46319;DHT22;32042;50.916;2.926;2023-10-09T02:28:43;15.20;99.90
46319;DHT22;32042;50.916;2.926;2023-10-09T02:31:11;15.20;99.90
46319;DHT22;32042;50.916;2.926;2023-10-09T02:33:39;15.20;99.90
46319;DHT22;32042;50.916;2.926;2023-10-09T02:36:06;15.30;99.90
46319;DHT22;32042;50.916;2.926;2023-10-09T02:38:34;15.20;99.90
46319;DHT22;32042;50.916;2.926;2023-10-09T02:41:03;15.20;99.90
46319;DHT22;32042;50.916;2.926;2023-10-09T02:43:32;15.20;99.90
46319;DHT22;32042;50.916;2.926;2023-10-09T02:46:20;15.20;99.90
46319;DHT22;32042;50.916;2.926;2023-10-09T02:48:48;15.20;99.90
46319;DHT22;32042;50.916;2.926;2023-10-09T02:51:19;15.10;99.90
46319;DHT22;32042;50.916;2.926;2023-10-09T02:53:59;15.10;99.90
46319;DHT22;32042;50.916;2.926;2023-10-09T02:56:32;15.10;99.90
46319;DHT22;32042;50.916;2.926;2023-10-09T02:59:24;15.10;99.90
46319;DHT22;32042;50.916;2.926;2023-10-09T03:01:50;15.10;99.90
46319;DHT22;32042;50.916;2.926;2023-10-09T03:04:19;15.00;99.90
46319;DHT22;32042;50.916;2.926;2023-10-09T03:06:45;15.00;99.90
46319;DHT22;32042;50.916;2.926;2023-10-09T03:09:20;15.00;99.90
46319;DHT22;32042;50.916;2.926;2023-10-09T03:12:00;15.00;99.90
46319;DHT22;32042;50.916;2.926;2023-10-09T03:14:29;15.00;99.90
46319;DHT22;32042;50.916;2.926;2023-10-09T03:16:55;15.00;99.90
46319;DHT22;32042;50.916;2.926;2023-10-09T03:19:22;15.00;99.90
46319;DHT22;32042;50.916;2.926;2023-10-09T03:21:48;15.00;99.90
46319;DHT22;32042;50.916;2.926;2023-10-09T03:24:13;15.00;99.90
46319;DHT22;32042;50.916;2.926;2023-10-09T03:26:41;15.00;99.90
46319;DHT22;32042;50.916;2.926;2023-10-09T03:29:10;15.10;99.90
46319;DHT22;32042;50.916;2.926;2023-10-09T03:31:36;15.10;99.90
46319;DHT22;32042;50.916;2.926;2023-10-09T03:34:04;15.00;99.90
46319;DHT22;32042;50.916;2.926;2023-10-09T03:36:29;15.10;99.90
46319;DHT22;32042;50.916;2.926;2023-10-09T03:39:06;15.10;99.90
46319;DHT22;32042;50.916;2.926;2023-10-09T03:42:04;15.10;99.90
46319;DHT22;32042;50.916;2.926;2023-10-09T03:44:31;15.10;99.90
46319;DHT22;32042;50.916;2.926;2023-10-09T03:46:59;15.10;99.90
46319;DHT22;32042;50.916;2.926;2023-10-09T03:49:25;15.00;99.90
46319;DHT22;32042;50.916;2.926;2023-10-09T03:51:52;15.00;99.90
46319;DHT22;32042;50.916;2.926;2023-10-09T03:54:18;15.00;99.90
46319;DHT22;32042;50.916;2.926;2023-10-09T03:56:48;15.00;99.90
46319;DHT22;32042;50.916;2.926;2023-10-09T03:59:21;15.00;99.90
46319;DHT22;32042;50.916;2.926;2023-10-09T04:01:47;15.00;99.90
46319;DHT22;32042;50.916;2.926;2023-10-09T04:04:14;14.90;99.90
46319;DHT22;32042;50.916;2.926;2023-10-09T04:06:40;14.90;99.90
46319;DHT22;32042;50.916;2.926;2023-10-09T04:09:08;14.90;99.90
46319;DHT22;32042;50.916;2.926;2023-10-09T04:11:50;14.90;99.90
46319;DHT22;32042;50.916;2.926;2023-10-09T04:14:32;14.90;99.90
46319;DHT22;32042;50.916;2.926;2023-10-09T04:17:00;14.80;99.90
46319;DHT22;32042;50.916;2.926;2023-10-09T04:19:30;14.80;99.90
46319;DHT22;32042;50.916;2.926;2023-10-09T04:22:04;14.80;99.90
46319;DHT22;32042;50.916;2.926;2023-10-09T04:24:33;14.90;99.90
46319;DHT22;32042;50.916;2.926;2023-10-09T04:27:06;14.80;99.90
46319;DHT22;32042;50.916;2.926;2023-10-09T04:29:34;14.80;99.90
46319;DHT22;32042;50.916;2.926;2023-10-09T04:32:12;14.80;99.90
46319;DHT22;32042;50.916;2.926;2023-10-09T04:34:44;14.80;99.90
46319;DHT22;32042;50.916;2.926;2023-10-09T04:37:22;14.80;99.90
46319;DHT22;32042;50.916;2.926;2023-10-09T04:40:08;14.80;99.90
46319;DHT22;32042;50.916;2.926;2023-10-09T04:42:38;14.80;99.90
46319;DHT22;32042;50.916;2.926;2023-10-09T04:45:07;14.80;99.90
46319;DHT22;32042;50.916;2.926;2023-10-09T04:47:36;14.80;99.90
46319;DHT22;32042;50.916;2.926;2023-10-09T04:50:07;14.80;99.90
46319;DHT22;32042;50.916;2.926;2023-10-09T04:52:33;14.80;99.90
46319;DHT22;32042;50.916;2.926;2023-10-09T04:54:59;14.80;99.90
46319;DHT22;32042;50.916;2.926;2023-10-09T04:57:45;14.80;99.90
46319;DHT22;32042;50.916;2.926;2023-10-09T05:00:13;14.70;99.90
46319;DHT22;32042;50.916;2.926;2023-10-09T05:03:03;14.80;99.90
46319;DHT22;32042;50.916;2.926;2023-10-09T05:05:31;14.80;99.90
46319;DHT22;32042;50.916;2.926;2023-10-09T05:11:03;14.70;99.90
46319;DHT22;32042;50.916;2.926;2023-10-09T05:13:36;14.80;99.90
46319;DHT22;32042;50.916;2.926;2023-10-09T05:16:22;14.70;99.90
46319;DHT22;32042;50.916;2.926;2023-10-09T05:18:49;14.70;99.90
46319;DHT22;32042;50.916;2.926;2023-10-09T05:21:53;14.70;99.90
46319;DHT22;32042;50.916;2.926;2023-10-09T05:24:18;14.70;99.90
46319;DHT22;32042;50.916;2.926;2023-10-09T05:26:51;14.60;99.90
46319;DHT22;32042;50.916;2.926;2023-10-09T05:29:22;14.60;99.90
46319;DHT22;32042;50.916;2.926;2023-10-09T05:31:58;14.60;99.90
46319;DHT22;32042;50.916;2.926;2023-10-09T05:34:40;14.60;99.90
46319;DHT22;32042;50.916;2.926;2023-10-09T05:37:25;14.60;99.90
46319;DHT22;32042;50.916;2.926;2023-10-09T05:39:55;14.60;99.90
46319;DHT22;32042;50.916;2.926;2023-10-09T05:42:44;14.60;99.90
46319;DHT22;32042;50.916;2.926;2023-10-09T05:45:15;14.60;99.90
46319;DHT22;32042;50.916;2.926;2023-10-09T05:47:53;14.60;99.90
46319;DHT22;32042;50.916;2.926;2023-10-09T05:50:20;14.60;99.90
46319;DHT22;32042;50.916;2.926;2023-10-09T05:52:49;14.60;99.90
46319;DHT22;32042;50.916;2.926;2023-10-09T05:55:27;14.50;99.90
46319;DHT22;32042;50.916;2.926;2023-10-09T05:58:11;14.50;99.90
46319;DHT22;32042;50.916;2.926;2023-10-09T06:00:55;14.50;99.90
46319;DHT22;32042;50.916;2.926;2023-10-09T06:03:39;14.50;99.90
46319;DHT22;32042;50.916;2.926;2023-10-09T06:06:14;14.50;99.90
46319;DHT22;32042;50.916;2.926;2023-10-09T06:09:02;14.40;99.90
46319;DHT22;32042;50.916;2.926;2023-10-09T06:14:07;14.30;99.90
46319;DHT22;32042;50.916;2.926;2023-10-09T06:16:37;14.30;99.90
46319;DHT22;32042;50.916;2.926;2023-10-09T06:19:22;14.20;99.90
46319;DHT22;32042;50.916;2.926;2023-10-09T06:21:48;14.20;99.90
46319;DHT22;32042;50.916;2.926;2023-10-09T06:24:32;14.20;99.90
46319;DHT22;32042;50.916;2.926;2023-10-09T06:27:16;14.20;99.90
46319;DHT22;32042;50.916;2.926;2023-10-09T06:30:02;14.20;99.90
46319;DHT22;32042;50.916;2.926;2023-10-09T06:32:46;14.10;99.90
46319;DHT22;32042;50.916;2.926;2023-10-09T06:35:20;14.20;99.90
46319;DHT22;32042;50.916;2.926;2023-10-09T06:37:57;14.20;99.90
46319;DHT22;32042;50.916;2.926;2023-10-09T06:40:29;14.20;99.90
46319;DHT22;32042;50.916;2.926;2023-10-09T06:43:04;14.20;99.90
46319;DHT22;32042;50.916;2.926;2023-10-09T06:45:38;14.20;99.90
46319;DHT22;32042;50.916;2.926;2023-10-09T06:48:13;14.20;99.90
46319;DHT22;32042;50.916;2.926;2023-10-09T06:51:12;14.30;99.90
46319;DHT22;32042;50.916;2.926;2023-10-09T06:53:56;14.30;99.90
46319;DHT22;32042;50.916;2.926;2023-10-09T06:56:31;14.30;99.90
46319;DHT22;32042;50.916;2.926;2023-10-09T06:59:01;14.40;99.90
46319;DHT22;32042;50.916;2.926;2023-10-09T07:01:30;14.40;99.90
46319;DHT22;32042;50.916;2.926;2023-10-09T07:04:06;14.50;99.90
46319;DHT22;32042;50.916;2.926;2023-10-09T07:06:46;14.60;99.90
46319;DHT22;32042;50.916;2.926;2023-10-09T07:09:13;14.60;99.90
46319;DHT22;32042;50.916;2.926;2023-10-09T07:11:47;14.70;99.90
46319;DHT22;32042;50.916;2.926;2023-10-09T07:14:20;14.70;99.90
46319;DHT22;32042;50.916;2.926;2023-10-09T07:17:06;14.80;99.90
46319;DHT22;32042;50.916;2.926;2023-10-09T07:19:44;14.90;99.90
46319;DHT22;32042;50.916;2.926;2023-10-09T07:22:14;15.10;99.90
46319;DHT22;32042;50.916;2.926;2023-10-09T07:24:55;15.10;99.90
46319;DHT22;32042;50.916;2.926;2023-10-09T07:27:40;15.20;99.90
46319;DHT22;32042;50.916;2.926;2023-10-09T07:30:21;15.40;99.90
46319;DHT22;32042;50.916;2.926;2023-10-09T07:33:02;15.40;99.90
46319;DHT22;32042;50.916;2.926;2023-10-09T07:35:46;15.50;99.90
46319;DHT22;32042;50.916;2.926;2023-10-09T07:38:28;15.60;99.90
46319;DHT22;32042;50.916;2.926;2023-10-09T07:40:55;15.70;99.90
46319;DHT22;32042;50.916;2.926;2023-10-09T07:43:37;15.70;99.90
46319;DHT22;32042;50.916;2.926;2023-10-09T07:46:20;15.80;99.90
46319;DHT22;32042;50.916;2.926;2023-10-09T07:49:02;15.90;99.90
46319;DHT22;32042;50.916;2.926;2023-10-09T07:51:38;16.00;99.90
46319;DHT22;32042;50.916;2.926;2023-10-09T07:54:09;16.00;99.90
46319;DHT22;32042;50.916;2.926;2023-10-09T07:56:36;16.10;99.90
46319;DHT22;32042;50.916;2.926;2023-10-09T07:59:11;16.20;99.90
46319;DHT22;32042;50.916;2.926;2023-10-09T08:01:41;16.20;99.90
46319;DHT22;32042;50.916;2.926;2023-10-09T08:04:28;16.30;99.90
46319;DHT22;32042;50.916;2.926;2023-10-09T08:07:04;16.30;99.90
46319;DHT22;32042;50.916;2.926;2023-10-09T08:09:33;16.40;99.90
46319;DHT22;32042;50.916;2.926;2023-10-09T08:12:17;16.40;99.90
46319;DHT22;32042;50.916;2.926;2023-10-09T08:15:06;16.60;99.90
46319;DHT22;32042;50.916;2.926;2023-10-09T08:17:45;16.60;99.90
46319;DHT22;32042;50.916;2.926;2023-10-09T08:20:22;16.70;99.90
46319;DHT22;32042;50.916;2.926;2023-10-09T08:22:51;16.80;99.90
46319;DHT22;32042;50.916;2.926;2023-10-09T08:25:18;16.90;99.90
46319;DHT22;32042;50.916;2.926;2023-10-09T08:28:02;17.00;99.90
46319;DHT22;32042;50.916;2.926;2023-10-09T08:30:40;17.10;99.90
46319;DHT22;32042;50.916;2.926;2023-10-09T08:33:14;17.30;99.90
46319;DHT22;32042;50.916;2.926;2023-10-09T08:35:55;17.40;99.90
46319;DHT22;32042;50.916;2.926;2023-10-09T08:38:27;17.50;99.90
46319;DHT22;32042;50.916;2.926;2023-10-09T08:41:07;17.50;99.90
46319;DHT22;32042;50.916;2.926;2023-10-09T08:43:37;17.60;99.90
46319;DHT22;32042;50.916;2.926;2023-10-09T08:46:05;17.70;99.90
46319;DHT22;32042;50.916;2.926;2023-10-09T08:48:31;17.80;99.90
46319;DHT22;32042;50.916;2.926;2023-10-09T08:50:57;17.70;99.90
46319;DHT22;32042;50.916;2.926;2023-10-09T08:53:24;17.80;99.90
46319;DHT22;32042;50.916;2.926;2023-10-09T08:55:50;17.80;99.90
46319;DHT22;32042;50.916;2.926;2023-10-09T08:58:17;17.90;99.90
46319;DHT22;32042;50.916;2.926;2023-10-09T09:00:50;18.00;99.90
46319;DHT22;32042;50.916;2.926;2023-10-09T09:03:19;18.10;99.90
46319;DHT22;32042;50.916;2.926;2023-10-09T09:06:01;18.10;99.90
46319;DHT22;32042;50.916;2.926;2023-10-09T09:08:28;18.20;99.90
46319;DHT22;32042;50.916;2.926;2023-10-09T09:10:58;18.30;99.90
46319;DHT22;32042;50.916;2.926;2023-10-09T09:13:36;18.40;99.90
46319;DHT22;32042;50.916;2.926;2023-10-09T09:16:01;18.30;99.90
46319;DHT22;32042;50.916;2.926;2023-10-09T09:18:28;18.40;99.90
46319;DHT22;32042;50.916;2.926;2023-10-09T09:21:06;18.50;99.90
46319;DHT22;32042;50.916;2.926;2023-10-09T09:23:57;18.60;99.90
46319;DHT22;32042;50.916;2.926;2023-10-09T09:26:43;18.70;99.90
46319;DHT22;32042;50.916;2.926;2023-10-09T09:29:15;18.80;99.90
46319;DHT22;32042;50.916;2.926;2023-10-09T09:31:54;18.90;99.90
46319;DHT22;32042;50.916;2.926;2023-10-09T09:34:20;19.00;99.90
46319;DHT22;32042;50.916;2.926;2023-10-09T09:36:55;19.10;99.90
46319;DHT22;32042;50.916;2.926;2023-10-09T09:39:23;19.30;99.90
46319;DHT22;32042;50.916;2.926;2023-10-09T09:41:55;19.40;99.90
46319;DHT22;32042;50.916;2.926;2023-10-09T09:44:23;19.60;99.90
46319;DHT22;32042;50.916;2.926;2023-10-09T09:46:57;19.70;99.90
46319;DHT22;32042;50.916;2.926;2023-10-09T09:49:27;19.70;99.90
46319;DHT22;32042;50.916;2.926;2023-10-09T09:52:00;19.90;99.90
46319;DHT22;32042;50.916;2.926;2023-10-09T09:54:26;20.00;99.90
46319;DHT22;32042;50.916;2.926;2023-10-09T09:56:54;20.10;99.90
46319;DHT22;32042;50.916;2.926;2023-10-09T09:59:26;20.20;99.90
46319;DHT22;32042;50.916;2.926;2023-10-09T10:01:59;20.40;99.90
46319;DHT22;32042;50.916;2.926;2023-10-09T10:04:32;20.40;99.90
46319;DHT22;32042;50.916;2.926;2023-10-09T10:07:05;20.50;99.90
46319;DHT22;32042;50.916;2.926;2023-10-09T10:09:41;20.70;99.90
46319;DHT22;32042;50.916;2.926;2023-10-09T10:12:11;20.70;99.90
46319;DHT22;32042;50.916;2.926;2023-10-09T10:14:56;20.80;99.90
46319;DHT22;32042;50.916;2.926;2023-10-09T10:20:30;21.10;99.90
46319;DHT22;32042;50.916;2.926;2023-10-09T10:23:19;21.10;99.90
46319;DHT22;32042;50.916;2.926;2023-10-09T10:25:46;21.30;99.90
46319;DHT22;32042;50.916;2.926;2023-10-09T10:28:25;21.30;99.90
46319;DHT22;32042;50.916;2.926;2023-10-09T10:30:54;21.40;99.90
46319;DHT22;32042;50.916;2.926;2023-10-09T10:33:21;21.40;99.90
46319;DHT22;32042;50.916;2.926;2023-10-09T10:35:52;21.40;99.90
46319;DHT22;32042;50.916;2.926;2023-10-09T10:40:50;21.40;99.90
46319;DHT22;32042;50.916;2.926;2023-10-09T10:43:26;21.50;99.90
46319;DHT22;32042;50.916;2.926;2023-10-09T10:46:06;21.50;99.90
46319;DHT22;32042;50.916;2.926;2023-10-09T10:48:53;21.60;99.90
46319;DHT22;32042;50.916;2.926;2023-10-09T10:51:35;21.60;99.90
46319;DHT22;32042;50.916;2.926;2023-10-09T10:54:04;21.60;99.90
46319;DHT22;32042;50.916;2.926;2023-10-09T10:56:48;21.60;99.90
46319;DHT22;32042;50.916;2.926;2023-10-09T10:59:15;21.60;99.90
46319;DHT22;32042;50.916;2.926;2023-10-09T11:01:51;21.60;99.90
46319;DHT22;32042;50.916;2.926;2023-10-09T11:04:40;21.60;99.90
46319;DHT22;32042;50.916;2.926;2023-10-09T11:07:09;21.60;99.90
46319;DHT22;32042;50.916;2.926;2023-10-09T11:09:52;21.60;99.90
46319;DHT22;32042;50.916;2.926;2023-10-09T11:15:09;21.60;99.90
46319;DHT22;32042;50.916;2.926;2023-10-09T11:18:01;21.50;99.90
46319;DHT22;32042;50.916;2.926;2023-10-09T11:20:55;21.50;99.90
46319;DHT22;32042;50.916;2.926;2023-10-09T11:23:32;21.50;99.90
46319;DHT22;32042;50.916;2.926;2023-10-09T11:26:05;21.50;99.90
46319;DHT22;32042;50.916;2.926;2023-10-09T11:34:29;21.40;99.90
46319;DHT22;32042;50.916;2.926;2023-10-09T11:36:59;21.40;99.90
46319;DHT22;32042;50.916;2.926;2023-10-09T11:39:26;21.40;99.90
46319;DHT22;32042;50.916;2.926;2023-10-09T11:42:06;21.50;99.90
46319;DHT22;32042;50.916;2.926;2023-10-09T11:44:42;21.50;99.90
46319;DHT22;32042;50.916;2.926;2023-10-09T11:47:11;21.60;99.90
46319;DHT22;32042;50.916;2.926;2023-10-09T11:49:56;21.60;99.90
46319;DHT22;32042;50.916;2.926;2023-10-09T11:52:56;21.70;99.90
46319;DHT22;32042;50.916;2.926;2023-10-09T11:55:37;21.70;99.90
46319;DHT22;32042;50.916;2.926;2023-10-09T11:58:04;21.70;99.90
46319;DHT22;32042;50.916;2.926;2023-10-09T12:00:31;21.80;99.90
46319;DHT22;32042;50.916;2.926;2023-10-09T12:03:10;21.80;99.90
46319;DHT22;32042;50.916;2.926;2023-10-09T12:05:35;21.90;99.90
46319;DHT22;32042;50.916;2.926;2023-10-09T12:08:03;21.90;99.90
46319;DHT22;32042;50.916;2.926;2023-10-09T12:10:34;22.00;99.90
46319;DHT22;32042;50.916;2.926;2023-10-09T12:12:59;22.00;99.90
46319;DHT22;32042;50.916;2.926;2023-10-09T12:15:30;22.00;99.90
46319;DHT22;32042;50.916;2.926;2023-10-09T12:18:11;22.10;99.90
46319;DHT22;32042;50.916;2.926;2023-10-09T12:20:44;22.00;99.90
46319;DHT22;32042;50.916;2.926;2023-10-09T12:23:17;22.10;99.90
46319;DHT22;32042;50.916;2.926;2023-10-09T12:25:43;22.10;99.90
46319;DHT22;32042;50.916;2.926;2023-10-09T12:28:12;22.10;99.90
46319;DHT22;32042;50.916;2.926;2023-10-09T12:30:39;22.20;99.90
46319;DHT22;32042;50.916;2.926;2023-10-09T12:33:08;22.20;99.90
46319;DHT22;32042;50.916;2.926;2023-10-09T12:35:38;22.20;99.90
46319;DHT22;32042;50.916;2.926;2023-10-09T12:38:05;22.20;99.90
46319;DHT22;32042;50.916;2.926;2023-10-09T12:40:39;22.30;99.90
46319;DHT22;32042;50.916;2.926;2023-10-09T12:43:07;22.30;99.90
46319;DHT22;32042;50.916;2.926;2023-10-09T12:45:41;22.20;99.90
46319;DHT22;32042;50.916;2.926;2023-10-09T12:48:07;22.20;99.90
46319;DHT22;32042;50.916;2.926;2023-10-09T12:50:37;22.20;99.90
46319;DHT22;32042;50.916;2.926;2023-10-09T12:53:11;22.20;99.90
46319;DHT22;32042;50.916;2.926;2023-10-09T12:55:39;22.20;99.90
46319;DHT22;32042;50.916;2.926;2023-10-09T12:58:10;22.30;99.90
46319;DHT22;32042;50.916;2.926;2023-10-09T13:00:40;22.30;99.90
46319;DHT22;32042;50.916;2.926;2023-10-09T13:03:13;22.30;99.90
46319;DHT22;32042;50.916;2.926;2023-10-09T13:05:52;22.30;99.90
46319;DHT22;32042;50.916;2.926;2023-10-09T13:10:52;22.20;99.90
46319;DHT22;32042;50.916;2.926;2023-10-09T13:13:26;22.30;99.90
46319;DHT22;32042;50.916;2.926;2023-10-09T13:16:02;22.30;99.90
46319;DHT22;32042;50.916;2.926;2023-10-09T13:18:32;22.30;99.90
46319;DHT22;32042;50.916;2.926;2023-10-09T13:20:57;22.40;99.90
46319;DHT22;32042;50.916;2.926;2023-10-09T13:23:23;22.40;99.90
46319;DHT22;32042;50.916;2.926;2023-10-09T13:25:59;22.40;99.90
46319;DHT22;32042;50.916;2.926;2023-10-09T13:28:32;22.50;99.90
46319;DHT22;32042;50.916;2.926;2023-10-09T13:30:57;22.50;99.90
46319;DHT22;32042;50.916;2.926;2023-10-09T13:33:23;22.50;99.90
46319;DHT22;32042;50.916;2.926;2023-10-09T13:35:49;22.60;99.90
46319;DHT22;32042;50.916;2.926;2023-10-09T13:38:16;22.60;99.90
46319;DHT22;32042;50.916;2.926;2023-10-09T13:40:42;22.70;99.90
46319;DHT22;32042;50.916;2.926;2023-10-09T13:43:08;22.70;99.90
46319;DHT22;32042;50.916;2.926;2023-10-09T13:45:41;22.80;99.90
46319;DHT22;32042;50.916;2.926;2023-10-09T13:48:14;22.80;99.90
46319;DHT22;32042;50.916;2.926;2023-10-09T13:50:43;22.90;99.90
46319;DHT22;32042;50.916;2.926;2023-10-09T13:53:09;23.00;99.90
46319;DHT22;32042;50.916;2.926;2023-10-09T13:55:37;23.10;99.90
46319;DHT22;32042;50.916;2.926;2023-10-09T13:58:10;23.10;99.90
46319;DHT22;32042;50.916;2.926;2023-10-09T14:03:08;23.30;99.90
46319;DHT22;32042;50.916;2.926;2023-10-09T14:05:40;23.40;99.90
46319;DHT22;32042;50.916;2.926;2023-10-09T14:08:22;23.50;99.90
46319;DHT22;32042;50.916;2.926;2023-10-09T14:10:51;23.60;99.90
46319;DHT22;32042;50.916;2.926;2023-10-09T14:13:17;23.70;99.90
46319;DHT22;32042;50.916;2.926;2023-10-09T14:15:52;23.80;99.90
46319;DHT22;32042;50.916;2.926;2023-10-09T14:18:22;23.80;99.90
46319;DHT22;32042;50.916;2.926;2023-10-09T14:20:48;23.90;99.90
46319;DHT22;32042;50.916;2.926;2023-10-09T14:23:15;23.70;99.90
46319;DHT22;32042;50.916;2.926;2023-10-09T14:25:46;24.00;99.90
46319;DHT22;32042;50.916;2.926;2023-10-09T14:28:15;24.00;99.90
46319;DHT22;32042;50.916;2.926;2023-10-09T14:30:45;24.10;99.90
46319;DHT22;32042;50.916;2.926;2023-10-09T14:33:14;24.00;99.90
46319;DHT22;32042;50.916;2.926;2023-10-09T14:35:48;24.00;99.90
46319;DHT22;32042;50.916;2.926;2023-10-09T14:38:14;24.10;99.90
46319;DHT22;32042;50.916;2.926;2023-10-09T14:40:44;24.10;99.90
46319;DHT22;32042;50.916;2.926;2023-10-09T14:43:11;24.00;99.90
46319;DHT22;32042;50.916;2.926;2023-10-09T14:45:47;23.90;99.90
46319;DHT22;32042;50.916;2.926;2023-10-09T14:48:15;23.80;99.90
46319;DHT22;32042;50.916;2.926;2023-10-09T14:50:49;23.60;99.90
46319;DHT22;32042;50.916;2.926;2023-10-09T14:53:15;23.50;99.90
46319;DHT22;32042;50.916;2.926;2023-10-09T14:55:41;23.50;99.90
46319;DHT22;32042;50.916;2.926;2023-10-09T14:58:11;23.30;99.90
46319;DHT22;32042;50.916;2.926;2023-10-09T15:00:37;23.30;99.90
